Time;durP1;ratioP1;P1;durP2;ratioP2;P2;SDS_P1;SDS_P2;PMS_P1;PMS_P2;Temp;Humidity;BMP_temperature;BMP_pressure;BME280_temperature;BME280_humidity;BME280_pressure;Samples;Min_cycle;Max_cycle;Signal;HPM_P1;HPM_P2
2021/04/29 00:01:17;;;;;;;24.50;18.40;;;;;;;12.90;84.09;94071.04;827486;71;32813;-77
2021/04/29 00:16:09;;;;;;;26.90;17.95;;;;;;;12.93;84.40;94072.48;827925;71;29667;-78
2021/04/29 00:31:16;;;;;;;29.35;21.15;;;;;;;13.00;84.32;94079.93;833623;71;32749;-77
2021/04/29 00:46:13;;;;;;;30.95;19.75;;;;;;;13.01;84.07;94074.33;833752;71;29700;-76
2021/04/29 01:01:15;;;;;;;27.42;20.62;;;;;;;12.98;83.80;94080.23;827134;71;33211;-79
2021/04/29 01:16:13;;;;;;;27.35;19.80;;;;;;;12.97;84.15;94077.36;827873;71;32058;-77
2021/04/29 01:31:17;;;;;;;32.95;20.85;;;;;;;13.00;84.01;94096.50;833375;71;33104;-78
2021/04/29 01:46:15;;;;;;;19.15;15.03;;;;;;;13.00;83.39;94101.00;808757;71;32876;-76
2021/04/29 02:01:16;;;;;;;28.27;21.05;;;;;;;12.80;83.22;94092.64;826444;71;33507;-79
2021/04/29 02:16:20;;;;;;;22.82;16.42;;;;;;;12.61;83.10;94098.75;834122;71;29804;-76
2021/04/29 02:31:11;;;;;;;19.92;15.65;;;;;;;12.73;83.73;94104.20;829063;71;30364;-79
2021/04/29 02:46:19;;;;;;;30.05;19.98;;;;;;;12.78;83.35;94111.16;826601;71;32726;-77
2021/04/29 03:01:45;;;;;;;30.05;20.20;;;;;;;12.71;83.53;94112.95;824031;71;30184;-76
2021/04/29 03:16:16;;;;;;;27.15;18.23;;;;;;;12.60;83.50;94130.12;827066;71;32762;-78
2021/04/29 03:31:10;;;;;;;19.37;14.45;;;;;;;14.49;88.21;94135.49;833802;71;31116;-78
2021/04/29 03:46:11;;;;;;;25.15;18.12;;;;;;;14.96;75.98;94159.90;818447;71;31905;-77
2021/04/29 04:01:17;;;;;;;24.47;19.35;;;;;;;13.05;79.32;94165.35;819583;71;33302;-77
2021/04/29 04:16:16;;;;;;;21.87;16.52;;;;;;;12.62;81.01;94178.73;817873;71;33699;-78
2021/04/29 04:31:12;;;;;;;23.40;17.35;;;;;;;12.77;81.35;94185.42;833733;71;30329;-78
2021/04/29 04:46:18;;;;;;;28.87;19.70;;;;;;;13.09;80.89;94203.16;826871;71;33575;-76
2021/04/29 05:01:14;;;;;;;31.97;21.93;;;;;;;14.23;78.78;94209.78;825083;71;32994;-77
2021/04/29 05:16:08;;;;;;;29.40;20.45;;;;;;;14.94;74.99;94220.21;827735;71;30170;-76
2021/04/29 05:31:13;;;;;;;30.80;21.62;;;;;;;14.43;74.87;94222.02;828067;71;32718;-76
2021/04/29 05:46:09;;;;;;;25.85;18.80;;;;;;;14.40;74.74;94227.39;827918;71;30265;-77
2021/04/29 06:01:11;;;;;;;26.25;19.17;;;;;;;14.54;74.69;94238.28;827520;71;30353;-77
2021/04/29 06:16:14;;;;;;;33.20;23.77;;;;;;;15.48;73.11;94243.26;834770;71;32030;-78
2021/04/29 06:31:15;;;;;;;35.20;26.35;;;;;;;16.37;70.60;94256.64;826749;71;33193;-75
2021/04/29 06:46:27;;;;;;;36.10;26.02;;;;;;;16.93;68.38;94247.61;827342;71;32824;-77
2021/04/29 07:01:15;;;;;;;29.00;23.18;;;;;;;19.70;63.59;94244.47;833267;71;33273;-76
2021/04/29 07:16:08;;;;;;;33.75;25.75;;;;;;;20.57;58.06;94251.52;829668;71;29684;-77
2021/04/29 07:31:16;;;;;;;34.60;26.90;;;;;;;22.25;53.29;94250.82;832671;71;32723;-75
2021/04/29 07:46:10;;;;;;;32.50;25.37;;;;;;;23.67;48.28;94238.74;827642;71;30311;-75
2021/04/29 08:01:15;;;;;;;23.77;20.57;;;;;;;24.58;48.62;94228.42;826853;71;32793;-75
2021/04/29 08:16:14;;;;;;;25.63;22.13;;;;;;;25.89;42.92;94228.48;826992;71;32736;-78
2021/04/29 08:31:12;;;;;;;26.97;21.70;;;;;;;;;;827492;71;32628;-76
2021/04/29 08:46:08;;;;;;;24.93;22.07;;;;;;;25.92;41.29;94212.16;827891;71;30039;-78
2021/04/29 09:01:45;;;;;;;27.00;22.60;;;;;;;26.35;40.13;94209.94;827964;71;30289;-76
2021/04/29 09:16:15;;;;;;;21.10;18.80;;;;;;;27.58;41.33;165944.63;832954;71;32807;-75
2021/04/29 09:31:12;;;;;;;19.23;17.13;;;;;;;28.65;39.24;94183.60;833520;71;29323;-73
2021/04/29 09:46:20;;;;;;;19.40;17.37;;;;;;;28.51;35.94;94176.53;827164;71;32793;-75
2021/04/29 10:01:16;;;;;;;17.80;14.83;;;;;;;26.75;39.40;94167.94;826952;71;32894;-78
2021/04/29 10:16:16;;;;;;;21.53;16.63;;;;;;;27.42;38.89;94154.15;827099;71;32717;-75
2021/04/29 10:31:22;;;;;;;16.30;13.03;;;;;;;27.45;35.78;94141.20;827604;71;30527;-76
2021/04/29 10:46:26;;;;;;;15.90;13.67;;;;;;;26.76;36.78;94135.80;828530;71;33191;-76
2021/04/29 11:01:16;;;;;;;17.27;11.47;;;;;;;;;;827228;71;32720;-77
2021/04/29 11:16:08;;;;;;;11.67;10.57;;;;;;;26.18;38.11;94132.84;828220;71;29420;-78
2021/04/29 11:31:10;;;;;;;11.53;10.33;;;;;;;26.94;37.90;94104.64;829028;71;30241;-76
2021/04/29 11:46:23;;;;;;;13.40;10.20;;;;;;;26.35;37.33;94078.11;827044;71;32700;-76
2021/04/29 12:01:17;;;;;;;9.67;8.70;;;;;;;26.24;37.33;94070.73;828393;71;32708;-77
2021/04/29 12:16:13;;;;;;;9.10;7.97;;;;;;;26.32;37.03;94053.95;827550;71;31394;-77
2021/04/29 12:31:20;;;;;;;11.30;7.90;;;;;;;27.11;35.73;94044.41;827847;71;32765;-77
2021/04/29 12:46:15;;;;;;;11.10;9.43;;;;;;;27.35;35.67;94023.72;828180;71;33730;-78
2021/04/29 13:01:12;;;;;;;8.40;7.40;;;;;;;25.44;37.90;94018.72;834199;71;30728;-78
2021/04/29 13:16:16;;;;;;;10.00;7.37;;;;;;;25.34;37.70;94018.21;829143;70;32030;-76
2021/04/29 13:31:08;;;;;;;12.47;8.00;;;;;;;24.46;38.48;94009.58;827647;71;29750;-79
2021/04/29 13:46:14;;;;;;;9.03;7.23;;;;;;;24.41;38.47;94005.94;826638;71;32692;-77
2021/04/29 14:01:09;;;;;;;8.23;6.70;;;;;;;24.82;38.30;94000.64;830726;71;29740;-77
2021/04/29 14:16:15;;;;;;;8.93;7.60;;;;;;;24.99;37.37;93988.47;829350;71;32982;-82
2021/04/29 14:31:15;;;;;;;8.60;7.37;;;;;;;24.61;37.60;93964.70;828335;71;32695;-79
2021/04/29 14:46:09;;;;;;;9.70;6.43;;;;;;;24.17;39.08;93990.89;827964;71;30350;-78
2021/04/29 15:01:43;;;;;;;11.93;6.50;;;;;;;23.93;39.58;93988.45;833620;71;32263;-78
2021/04/29 15:16:17;;;;;;;11.47;7.37;;;;;;;23.56;40.93;93982.12;827140;71;32708;-81
2021/04/29 15:31:15;;;;;;;7.90;6.07;;;;;;;23.17;41.91;93974.84;833751;71;32698;-76
2021/04/29 15:46:14;;;;;;;8.77;7.27;;;;;;;22.90;43.79;93963.69;827730;71;32742;-78
2021/04/29 16:01:16;;;;;;;13.30;9.73;;;;;;;22.79;45.71;93950.30;828350;71;32677;-79
2021/04/29 16:16:09;;;;;;;13.37;8.30;;;;;;;22.45;46.07;93944.47;828820;71;30781;-77
2021/04/29 16:31:16;;;;;;;11.77;9.10;;;;;;;22.11;47.03;93949.44;833126;71;33445;-77
2021/04/29 16:46:09;;;;;;;9.07;8.17;;;;;;;21.77;47.34;93936.27;833227;71;30396;-78
2021/04/29 17:01:09;;;;;;;9.18;8.25;;;;;;;21.25;47.28;93938.73;820408;71;29708;-79
2021/04/29 17:16:09;;;;;;;15.18;9.13;;;;;;;20.85;47.83;93953.06;829279;71;29362;-78
2021/04/29 17:31:21;;;;;;;9.50;7.97;;;;;;;20.54;48.57;93980.33;827026;71;32916;-77
2021/04/29 17:46:14;;;;;;;14.03;9.70;;;;;;;20.09;50.56;94011.34;827030;71;32758;-78
2021/04/29 18:01:19;;;;;;;9.95;8.65;;;;;;;19.66;50.30;94027.24;827178;71;33688;-75
2021/04/29 18:16:10;;;;;;;15.63;10.00;;;;;;;19.46;49.85;94043.84;830319;71;29640;-79
2021/04/29 18:31:17;;;;;;;10.40;6.80;;;;;;;19.19;49.27;94069.03;828280;71;33069;-79
2021/04/29 18:46:11;;;;;;;8.08;7.17;;;;;;;18.96;49.38;94069.00;833794;71;29797;-80
2021/04/29 19:01:16;;;;;;;8.15;6.70;;;;;;;18.87;49.43;94079.83;827494;71;32720;-79
2021/04/29 19:16:15;;;;;;;8.40;6.85;;;;;;;18.76;49.78;94090.23;794965;71;33016;-81
2021/04/29 19:31:15;;;;;;;10.53;7.37;;;;;;;18.70;50.35;94100.17;821139;71;33233;-78
2021/04/29 19:46:17;;;;;;;10.30;7.25;;;;;;;18.67;51.35;94116.23;819971;71;33588;-79
2021/04/29 20:01:15;;;;;;;17.23;8.70;;;;;;;18.76;54.31;94121.37;826604;71;32734;-79
2021/04/29 20:16:10;;;;;;;12.20;9.55;;;;;;;18.59;54.42;94131.81;795486;73;30650;-79
2021/04/29 20:31:15;;;;;;;10.72;8.68;;;;;;;18.39;55.84;94137.11;833313;71;33535;-79
2021/04/29 20:46:10;;;;;;;10.80;9.70;;;;;;;18.29;61.17;94168.19;827445;71;29673;-78
2021/04/29 21:01:49;;;;;;;15.25;11.05;;;;;;;18.19;63.67;94158.84;827242;71;32794;-78
2021/04/29 21:16:14;;;;;;;13.32;10.63;;;;;;;18.03;64.35;94171.92;834370;71;32729;-76
2021/04/29 21:31:10;;;;;;;13.43;10.30;;;;;;;17.85;64.44;94166.17;834139;71;30607;-78
2021/04/29 21:46:17;;;;;;;13.43;11.28;;;;;;;17.73;66.00;94165.09;826923;71;32769;-76
2021/04/29 22:01:15;;;;;;;14.60;11.22;;;;;;;17.67;66.39;94162.48;826484;71;32743;-76
2021/04/29 22:16:08;;;;;;;22.02;13.30;;;;;;;17.69;68.40;94164.23;828124;71;29673;-78
2021/04/29 22:31:15;;;;;;;18.05;13.55;;;;;;;17.57;69.67;94170.37;826990;71;33003;-75
2021/04/29 22:46:18;;;;;;;16.75;13.50;;;;;;;17.36;70.03;94137.44;828964;71;32653;-78
2021/04/29 23:01:08;;;;;;;16.50;12.95;;;;;;;17.26;70.36;94139.25;833742;71;29792;-77
2021/04/29 23:16:08;;;;;;;18.10;14.30;;;;;;;17.05;71.54;94150.03;828829;71;29491;-77
2021/04/29 23:31:09;;;;;;;18.12;14.03;;;;;;;16.92;72.12;94155.94;828110;71;30369;-76
2021/04/29 23:46:14;;;;;;;21.52;14.90;;;;;;;16.79;72.32;94160.48;827942;71;31522;-77
